Time;durP1;ratioP1;P1;durP2;ratioP2;P2;SDS_P1;SDS_P2;PMS_P1;PMS_P2;Temp;Humidity;BMP_temperature;BMP_pressure;BME280_temperature;BME280_humidity;BME280_pressure;Samples;Min_cycle;Max_cycle;Signal;HPM_P1;HPM_P2
2023/03/07 00:01:31;;;;;;;;;42.00;38.40;;;;;;;;5248113;28;8780;-70
2023/03/07 00:04:03;;;;;;;;;34.00;33.60;;;;;;;;5212825;28;8778;-67
2023/03/07 00:06:34;;;;;;;;;28.80;27.20;;;;;;;;5234210;28;9671;-70
2023/03/07 00:09:04;;;;;;;;;23.50;21.50;;;;;;;;5234170;28;8932;-70
2023/03/07 00:11:35;;;;;;;;;29.25;29.25;;;;;;;;5221790;28;11413;-70
2023/03/07 00:14:07;;;;;;;;;33.50;31.00;;;;;;;;5213149;28;8800;-70
2023/03/07 00:16:38;;;;;;;;;35.20;33.60;;;;;;;;5229804;28;8851;-70
2023/03/07 00:19:09;;;;;;;;;49.00;44.50;;;;;;;;5247601;28;8777;-70
2023/03/07 00:21:39;;;;;;;;;42.00;39.50;;;;;;;;5223952;28;12194;-70
2023/03/07 00:24:28;;;;;;;;;45.60;44.00;;;;;;;;5268196;28;8853;-70
2023/03/07 00:26:59;;;;;;;;;48.00;45.25;;;;;;;;5268396;28;9601;-70
2023/03/07 00:29:49;;;;;;;;;55.80;46.60;;;;;;;;5253133;28;8859;-70
2023/03/07 00:32:19;;;;;;;;;53.00;47.25;;;;;;;;5233873;28;8778;-70
2023/03/07 00:34:50;;;;;;;;;48.00;42.75;;;;;;;;5268132;28;8797;-69
2023/03/07 00:37:21;;;;;;;;;37.00;32.00;;;;;;;;5232921;28;8812;-70
2023/03/07 00:39:53;;;;;;;;;23.00;20.25;;;;;;;;5247499;28;8785;-72
2023/03/07 00:42:24;;;;;;;;;21.60;19.00;;;;;;;;5250064;28;11452;-70
2023/03/07 00:44:55;;;;;;;;;21.75;21.75;;;;;;;;5268124;28;8806;-70
2023/03/07 00:47:26;;;;;;;;;18.75;18.75;;;;;;;;5230614;28;11487;-68
2023/03/07 00:50:15;;;;;;;;;35.80;34.80;;;;;;;;5214389;28;8833;-69
2023/03/07 00:52:46;;;;;;;;;24.60;23.20;;;;;;;;5228689;28;8789;-68
2023/03/07 00:55:18;;;;;;;;;11.80;11.80;;;;;;;;5228572;28;8815;-67
2023/03/07 00:57:49;;;;;;;;;19.80;19.80;;;;;;;;5212633;28;8791;-67
2023/03/07 01:00:20;;;;;;;;;21.00;20.00;;;;;;;;5228336;28;8796;-67
2023/03/07 01:02:51;;;;;;;;;19.00;18.80;;;;;;;;5217600;28;8830;-67
2023/03/07 01:05:22;;;;;;;;;20.00;19.25;;;;;;;;5218587;28;8808;-68
2023/03/07 01:07:53;;;;;;;;;17.60;16.00;;;;;;;;5218568;28;8776;-68
2023/03/07 01:10:25;;;;;;;;;18.60;18.60;;;;;;;;5217612;28;8833;-67
2023/03/07 01:12:57;;;;;;;;;21.40;20.20;;;;;;;;5217151;28;8856;-68
2023/03/07 01:15:28;;;;;;;;;32.00;30.00;;;;;;;;5203854;28;8797;-67
2023/03/07 01:17:58;;;;;;;;;39.50;31.75;;;;;;;;5218538;28;8769;-70
2023/03/07 01:20:31;;;;;;;;;44.75;41.75;;;;;;;;5245627;28;11487;-70
2023/03/07 01:23:03;;;;;;;;;37.60;34.80;;;;;;;;5217107;28;10844;-70
2023/03/07 01:25:53;;;;;;;;;24.60;22.60;;;;;;;;5229674;28;8800;-71
2023/03/07 01:28:24;;;;;;;;;24.00;23.00;;;;;;;;5228031;28;8796;-68
2023/03/07 01:30:58;;;;;;;;;16.20;13.00;;;;;;;;5247329;28;8861;-71
2023/03/07 01:33:30;;;;;;;;;27.40;26.20;;;;;;;;5245957;28;8870;-70
2023/03/07 01:36:01;;;;;;;;;17.00;17.00;;;;;;;;5245536;28;8809;-70
2023/03/07 01:38:33;;;;;;;;;22.20;20.20;;;;;;;;5211276;28;12384;-70
2023/03/07 01:41:08;;;;;;;;;19.40;19.20;;;;;;;;5214564;28;8862;-67
2023/03/07 01:43:39;;;;;;;;;25.40;24.00;;;;;;;;5212180;28;8789;-68
2023/03/07 01:46:16;;;;;;;;;23.80;23.80;;;;;;;;5227965;28;8833;-68
2023/03/07 01:48:57;;;;;;;;;30.40;25.80;;;;;;;;5227287;28;8772;-68
2023/03/07 01:51:28;;;;;;;;;30.00;28.40;;;;;;;;5243781;28;8785;-69
2023/03/07 01:54:05;;;;;;;;;21.80;21.80;;;;;;;;5210979;28;8789;-70
2023/03/07 01:56:37;;;;;;;;;20.80;20.00;;;;;;;;5206436;28;8798;-70
2023/03/07 01:59:31;;;;;;;;;23.60;22.00;;;;;;;;5244595;28;8862;-70
2023/03/07 02:02:05;;;;;;;;;22.60;21.40;;;;;;;;5219351;28;9541;-68
2023/03/07 02:04:42;;;;;;;;;24.00;21.80;;;;;;;;5210658;28;8826;-69
2023/03/07 02:07:14;;;;;;;;;23.00;21.80;;;;;;;;5216689;28;8803;-71
2023/03/07 02:09:47;;;;;;;;;17.60;17.60;;;;;;;;5217466;28;8824;-71
2023/03/07 02:12:19;;;;;;;;;15.40;14.40;;;;;;;;5217798;28;8808;-71
2023/03/07 02:14:50;;;;;;;;;16.20;15.40;;;;;;;;5203806;28;8789;-70
2023/03/07 02:17:22;;;;;;;;;16.40;16.00;;;;;;;;5208115;28;8781;-70
2023/03/07 02:19:56;;;;;;;;;22.80;22.40;;;;;;;;5210797;28;8785;-68
2023/03/07 02:22:28;;;;;;;;;18.60;17.20;;;;;;;;5206433;28;8826;-68
2023/03/07 02:25:10;;;;;;;;;15.40;15.40;;;;;;;;5194086;28;8897;-68
2023/03/07 02:27:42;;;;;;;;;33.00;33.00;;;;;;;;5210929;28;8812;-70
2023/03/07 02:30:13;;;;;;;;;26.60;24.60;;;;;;;;5194439;28;8768;-70
2023/03/07 02:32:44;;;;;;;;;61.40;50.20;;;;;;;;5225635;28;8776;-67
2023/03/07 02:35:17;;;;;;;;;53.25;46.50;;;;;;;;5228045;28;8828;-70
2023/03/07 02:37:54;;;;;;;;;42.20;33.20;;;;;;;;5211737;28;8855;-69
2023/03/07 02:40:28;;;;;;;;;30.20;29.20;;;;;;;;5227843;28;8918;-70
2023/03/07 02:43:04;;;;;;;;;35.20;32.60;;;;;;;;5225407;28;8813;-72
2023/03/07 02:45:36;;;;;;;;;29.80;27.80;;;;;;;;5214720;28;8830;-72
2023/03/07 02:48:07;;;;;;;;;20.25;19.00;;;;;;;;5211105;28;8773;-70
2023/03/07 02:50:38;;;;;;;;;13.75;13.75;;;;;;;;5228336;28;8899;-72
2023/03/07 02:53:09;;;;;;;;;24.60;23.20;;;;;;;;5227270;28;9567;-70
2023/03/07 02:55:40;;;;;;;;;18.40;17.60;;;;;;;;5226586;28;8813;-71
2023/03/07 02:58:11;;;;;;;;;21.40;21.00;;;;;;;;5244662;28;8818;-72
2023/03/07 03:00:42;;;;;;;;;19.20;18.20;;;;;;;;5228498;28;8792;-72
2023/03/07 03:03:31;;;;;;;;;22.80;21.40;;;;;;;;5249420;28;8789;-72
2023/03/07 03:06:02;;;;;;;;;22.00;22.00;;;;;;;;5238230;28;8802;-72
2023/03/07 03:08:33;;;;;;;;;26.40;26.40;;;;;;;;5235441;28;8790;-72
2023/03/07 03:11:05;;;;;;;;;32.60;32.60;;;;;;;;5229778;28;8842;-71
2023/03/07 03:13:38;;;;;;;;;41.20;37.60;;;;;;;;5253132;28;8786;-70
2023/03/07 03:16:10;;;;;;;;;44.20;42.80;;;;;;;;5251700;28;9505;-71
2023/03/07 03:18:44;;;;;;;;;40.80;38.60;;;;;;;;5236134;28;8793;-69
2023/03/07 03:21:15;;;;;;;;;38.00;37.00;;;;;;;;5215276;28;8809;-72
2023/03/07 03:23:46;;;;;;;;;35.75;33.50;;;;;;;;5214000;28;8852;-71
2023/03/07 03:26:17;;;;;;;;;34.50;33.75;;;;;;;;5244050;28;9121;-70
2023/03/07 03:29:08;;;;;;;;;34.80;34.40;;;;;;;;5254459;28;8766;-70
2023/03/07 03:31:39;;;;;;;;;40.40;37.60;;;;;;;;5234438;28;8791;-70
2023/03/07 03:34:28;;;;;;;;;40.00;37.80;;;;;;;;5238453;28;8804;-70
2023/03/07 03:36:59;;;;;;;;;38.60;37.00;;;;;;;;5247441;28;8804;-70
2023/03/07 03:39:31;;;;;;;;;26.60;26.60;;;;;;;;5219071;28;9556;-70
2023/03/07 03:42:21;;;;;;;;;26.60;25.40;;;;;;;;5269758;28;8798;-70
2023/03/07 03:44:52;;;;;;;;;44.00;39.60;;;;;;;;5246845;28;8861;-70
2023/03/07 03:47:22;;;;;;;;;87.33;69.67;;;;;;;;5230608;28;8773;-69
2023/03/07 03:49:56;;;;;;;;;41.50;37.00;;;;;;;;5230355;28;8801;-69
2023/03/07 03:52:27;;;;;;;;;48.80;45.60;;;;;;;;5231082;28;8797;-70
2023/03/07 03:54:58;;;;;;;;;33.60;32.60;;;;;;;;5251024;28;8821;-70
2023/03/07 03:57:30;;;;;;;;;45.00;42.00;;;;;;;;5234313;28;8779;-70
2023/03/07 04:00:03;;;;;;;;;37.40;37.00;;;;;;;;5251291;28;8779;-70
2023/03/07 04:02:43;;;;;;;;;43.60;39.60;;;;;;;;5250887;28;8813;-70
2023/03/07 04:05:17;;;;;;;;;33.60;31.00;;;;;;;;5224129;28;8824;-70
2023/03/07 04:07:48;;;;;;;;;33.75;31.25;;;;;;;;5229985;28;9561;-70
2023/03/07 04:10:37;;;;;;;;;32.80;32.00;;;;;;;;5247876;28;8780;-69
2023/03/07 04:13:08;;;;;;;;;56.25;50.00;;;;;;;;5256447;28;8903;-71
2023/03/07 04:15:39;;;;;;;;;42.40;42.40;;;;;;;;5223380;28;8804;-71
2023/03/07 04:18:10;;;;;;;;;41.20;37.80;;;;;;;;5229674;28;8780;-75
2023/03/07 04:20:42;;;;;;;;;39.50;37.25;;;;;;;;5230714;28;8933;-71
2023/03/07 04:23:13;;;;;;;;;55.00;47.40;;;;;;;;5212886;28;8792;-68
2023/03/07 04:25:55;;;;;;;;;71.80;56.40;;;;;;;;5201799;28;8801;-67
2023/03/07 04:29:07;;;;;;;;;54.00;48.20;;;;;;;;5230205;28;8809;-68
2023/03/07 04:31:51;;;;;;;;;50.60;48.20;;;;;;;;5219175;28;8766;-67
2023/03/07 04:34:22;;;;;;;;;72.40;60.00;;;;;;;;5229452;28;9468;-66
2023/03/07 04:36:53;;;;;;;;;75.00;61.00;;;;;;;;5230322;28;8789;-66
2023/03/07 04:39:24;;;;;;;;;74.00;57.50;;;;;;;;5246953;28;8791;-66
2023/03/07 04:41:55;;;;;;;;;63.00;52.20;;;;;;;;5229912;28;9664;-66
2023/03/07 04:44:27;;;;;;;;;76.80;60.20;;;;;;;;5233736;28;9685;-72
2023/03/07 04:46:58;;;;;;;;;80.25;61.25;;;;;;;;5247340;28;8988;-68
2023/03/07 04:49:29;;;;;;;;;83.50;66.00;;;;;;;;5234050;28;10300;-67
2023/03/07 04:52:18;;;;;;;;;79.80;66.00;;;;;;;;5247968;28;8797;-68
2023/03/07 04:54:50;;;;;;;;;72.75;59.75;;;;;;;;5254939;28;8790;-69
2023/03/07 04:57:39;;;;;;;;;74.00;62.00;;;;;;;;5236579;28;9691;-70
2023/03/07 05:00:11;;;;;;;;;55.20;47.60;;;;;;;;5255922;28;8901;-70
2023/03/07 05:02:43;;;;;;;;;55.60;47.80;;;;;;;;5264947;28;9532;-67
2023/03/07 05:05:14;;;;;;;;;67.00;56.60;;;;;;;;5246136;28;8797;-70
2023/03/07 05:07:46;;;;;;;;;71.20;60.40;;;;;;;;5227643;28;8989;-67
2023/03/07 05:10:17;;;;;;;;;89.75;69.75;;;;;;;;5244824;28;9511;-69
2023/03/07 05:12:48;;;;;;;;;44.25;43.25;;;;;;;;5245312;28;9581;-70
2023/03/07 05:15:20;;;;;;;;;111.75;88.25;;;;;;;;5244169;28;8790;-69
2023/03/07 05:17:51;;;;;;;;;93.33;74.33;;;;;;;;5264183;28;8805;-69
2023/03/07 05:20:22;;;;;;;;;82.00;66.20;;;;;;;;5256522;28;9559;-70
2023/03/07 05:22:54;;;;;;;;;90.80;72.00;;;;;;;;5254152;28;9587;-69
2023/03/07 05:25:25;;;;;;;;;83.60;67.60;;;;;;;;5259480;28;8942;-70
2023/03/07 05:28:15;;;;;;;;;92.00;74.50;;;;;;;;5256257;28;8938;-69
2023/03/07 05:30:46;;;;;;;;;73.80;60.20;;;;;;;;5230307;28;8796;-69
2023/03/07 05:33:17;;;;;;;;;77.20;65.20;;;;;;;;5244000;28;8796;-69
2023/03/07 05:35:49;;;;;;;;;99.75;77.00;;;;;;;;5258512;28;8806;-68
2023/03/07 05:38:21;;;;;;;;;113.25;93.75;;;;;;;;5212787;28;8797;-68
2023/03/07 05:40:52;;;;;;;;;128.50;115.00;;;;;;;;5226544;28;8781;-68
2023/03/07 05:43:23;;;;;;;;;105.33;86.00;;;;;;;;5237253;28;10694;-71
2023/03/07 05:45:55;;;;;;;;;101.25;75.75;;;;;;;;5242687;28;8817;-68
2023/03/07 05:48:26;;;;;;;;;80.80;64.40;;;;;;;;5256808;28;8891;-68
2023/03/07 05:51:15;;;;;;;;;73.20;57.20;;;;;;;;5236704;28;8803;-69
2023/03/07 05:53:46;;;;;;;;;80.60;62.80;;;;;;;;5222008;28;9522;-68
2023/03/07 05:56:18;;;;;;;;;83.40;58.60;;;;;;;;5230324;28;8855;-68
2023/03/07 05:58:50;;;;;;;;;123.67;103.00;;;;;;;;5260992;28;8793;-68
2023/03/07 06:01:21;;;;;;;;;101.25;74.50;;;;;;;;5239913;28;11640;-69
2023/03/07 06:03:52;;;;;;;;;73.40;58.80;;;;;;;;5231581;28;8868;-71
2023/03/07 06:06:23;;;;;;;;;57.80;46.00;;;;;;;;5228306;28;9532;-67
2023/03/07 06:08:55;;;;;;;;;70.80;52.20;;;;;;;;5239357;28;8789;-67
2023/03/07 06:11:26;;;;;;;;;42.80;32.80;;;;;;;;5212652;28;8833;-68
2023/03/07 06:13:57;;;;;;;;;41.50;37.25;;;;;;;;5245819;28;8800;-71
2023/03/07 06:16:28;;;;;;;;;49.20;42.00;;;;;;;;5255728;28;8783;-69
2023/03/07 06:18:59;;;;;;;;;39.20;38.00;;;;;;;;5240495;28;8786;-67
2023/03/07 06:21:30;;;;;;;;;48.50;44.25;;;;;;;;5246165;28;8849;-67
2023/03/07 06:24:02;;;;;;;;;45.60;42.40;;;;;;;;5233546;28;8912;-67
2023/03/07 06:26:51;;;;;;;;;59.20;49.80;;;;;;;;5245838;28;8815;-67
2023/03/07 06:29:25;;;;;;;;;70.00;57.60;;;;;;;;5245679;28;8894;-67
2023/03/07 06:31:56;;;;;;;;;98.33;75.33;;;;;;;;5245747;28;8946;-67
2023/03/07 06:34:45;;;;;;;;;102.40;79.60;;;;;;;;5246605;28;8783;-68
2023/03/07 06:37:16;;;;;;;;;72.40;55.40;;;;;;;;5233673;28;8839;-67
2023/03/07 06:39:47;;;;;;;;;75.00;59.00;;;;;;;;5215331;28;8777;-67
2023/03/07 06:42:18;;;;;;;;;43.75;43.25;;;;;;;;5249924;28;9398;-67
2023/03/07 06:44:49;;;;;;;;;58.00;51.25;;;;;;;;5249555;28;8892;-68
2023/03/07 06:47:20;;;;;;;;;62.80;53.60;;;;;;;;5249238;28;10290;-67
2023/03/07 06:49:52;;;;;;;;;66.75;56.00;;;;;;;;5214871;28;8788;-67
2023/03/07 06:52:23;;;;;;;;;62.60;54.00;;;;;;;;5236011;28;8867;-67
2023/03/07 06:54:55;;;;;;;;;60.60;50.80;;;;;;;;5253302;28;8805;-67
2023/03/07 06:57:44;;;;;;;;;65.60;50.00;;;;;;;;5270497;28;8796;-67
2023/03/07 07:00:16;;;;;;;;;75.60;55.40;;;;;;;;5222038;28;8820;-67
2023/03/07 07:02:47;;;;;;;;;49.60;44.00;;;;;;;;5249547;28;8757;-67
2023/03/07 07:05:18;;;;;;;;;58.60;49.80;;;;;;;;5231092;28;8875;-67
2023/03/07 07:07:49;;;;;;;;;41.60;39.60;;;;;;;;5231250;28;8777;-67
2023/03/07 07:10:21;;;;;;;;;61.60;50.40;;;;;;;;5237903;28;8790;-67
2023/03/07 07:12:55;;;;;;;;;61.75;50.25;;;;;;;;5237667;28;8832;-67
2023/03/07 07:15:27;;;;;;;;;23.00;22.00;;;;;;;;5264827;28;11458;-67
2023/03/07 07:17:57;;;;;;;;;36.00;34.20;;;;;;;;5250014;28;8803;-67
2023/03/07 07:20:29;;;;;;;;;31.75;31.50;;;;;;;;5214386;28;8812;-67
2023/03/07 07:22:59;;;;;;;;;38.40;37.80;;;;;;;;5230896;28;8869;-67
2023/03/07 07:25:30;;;;;;;;;34.00;31.50;;;;;;;;5239277;28;8830;-67
2023/03/07 07:28:19;;;;;;;;;25.60;24.80;;;;;;;;5252237;28;8771;-67
2023/03/07 07:30:50;;;;;;;;;25.75;25.00;;;;;;;;5267842;28;8778;-67
2023/03/07 07:33:21;;;;;;;;;19.75;18.50;;;;;;;;5240996;28;8800;-67
2023/03/07 07:35:54;;;;;;;;;16.40;16.40;;;;;;;;5214871;28;9523;-67
2023/03/07 07:38:25;;;;;;;;;32.60;30.00;;;;;;;;5230591;28;8785;-67
2023/03/07 07:40:57;;;;;;;;;24.40;24.20;;;;;;;;5248557;28;8803;-68
2023/03/07 07:43:28;;;;;;;;;28.40;25.80;;;;;;;;5231583;28;8802;-68
2023/03/07 07:46:10;;;;;;;;;30.40;26.80;;;;;;;;5192593;28;8880;-68
2023/03/07 07:48:42;;;;;;;;;30.00;29.80;;;;;;;;5227257;28;8817;-71
2023/03/07 07:51:15;;;;;;;;;26.60;26.60;;;;;;;;5228475;28;8827;-68
2023/03/07 07:53:46;;;;;;;;;29.60;26.80;;;;;;;;5247492;28;8832;-68
2023/03/07 07:56:17;;;;;;;;;71.80;55.40;;;;;;;;5213118;28;8846;-69
2023/03/07 07:58:49;;;;;;;;;34.40;33.60;;;;;;;;5241326;28;8811;-68
2023/03/07 08:01:21;;;;;;;;;24.00;23.60;;;;;;;;5229632;28;8784;-68
2023/03/07 08:04:10;;;;;;;;;30.20;27.00;;;;;;;;5230955;28;8809;-71
2023/03/07 08:06:59;;;;;;;;;30.20;28.00;;;;;;;;5243469;28;8840;-69
2023/03/07 08:09:30;;;;;;;;;16.00;16.00;;;;;;;;5213943;28;9488;-68
2023/03/07 08:12:01;;;;;;;;;27.50;25.25;;;;;;;;5245825;28;8847;-68
2023/03/07 08:14:33;;;;;;;;;20.00;19.50;;;;;;;;5227579;28;11591;-68
2023/03/07 08:17:22;;;;;;;;;27.20;26.00;;;;;;;;5242573;28;8882;-68
2023/03/07 08:19:53;;;;;;;;;37.00;32.75;;;;;;;;5247191;28;8808;-70
2023/03/07 08:22:23;;;;;;;;;43.50;40.25;;;;;;;;5230686;28;8781;-68
2023/03/07 08:24:54;;;;;;;;;64.00;54.25;;;;;;;;5238501;28;8835;-68
2023/03/07 08:27:43;;;;;;;;;15.60;14.20;;;;;;;;5229039;28;8798;-68
2023/03/07 08:30:14;;;;;;;;;22.75;21.75;;;;;;;;5266743;28;8783;-68
2023/03/07 08:32:49;;;;;;;;;19.00;17.40;;;;;;;;5268019;28;8835;-68
2023/03/07 08:35:21;;;;;;;;;22.00;22.00;;;;;;;;5234009;28;8794;-68
2023/03/07 08:37:55;;;;;;;;;11.40;11.40;;;;;;;;5266462;28;8887;-68
2023/03/07 08:40:27;;;;;;;;;16.40;15.60;;;;;;;;5268266;28;8821;-68
2023/03/07 08:42:58;;;;;;;;;22.20;22.20;;;;;;;;5250292;28;8867;-68
2023/03/07 08:45:29;;;;;;;;;24.00;21.60;;;;;;;;5266160;28;8863;-68
2023/03/07 08:48:00;;;;;;;;;25.50;24.25;;;;;;;;5249997;28;8914;-67
2023/03/07 08:50:31;;;;;;;;;18.00;18.00;;;;;;;;5247471;28;8787;-67
2023/03/07 08:53:02;;;;;;;;;22.50;22.50;;;;;;;;5268105;28;8763;-68
2023/03/07 08:55:36;;;;;;;;;18.60;17.20;;;;;;;;5268167;28;8783;-67
2023/03/07 08:58:07;;;;;;;;;24.60;24.60;;;;;;;;5249584;28;9581;-68
2023/03/07 09:00:37;;;;;;;;;24.00;24.00;;;;;;;;5267821;28;8774;-68
2023/03/07 09:03:08;;;;;;;;;24.00;23.75;;;;;;;;5267660;28;8782;-68
2023/03/07 09:05:39;;;;;;;;;28.75;28.50;;;;;;;;5229722;28;8841;-68
2023/03/07 09:08:10;;;;;;;;;22.00;21.25;;;;;;;;5246834;28;8789;-67
2023/03/07 09:10:40;;;;;;;;;37.25;33.75;;;;;;;;5231718;28;8794;-68
2023/03/07 09:13:12;;;;;;;;;18.60;18.00;;;;;;;;5267654;28;8794;-68
2023/03/07 09:16:05;;;;;;;;;15.80;15.60;;;;;;;;5267819;28;8789;-67
2023/03/07 09:18:36;;;;;;;;;19.00;17.40;;;;;;;;5267349;28;8803;-68
2023/03/07 09:21:07;;;;;;;;;24.25;24.25;;;;;;;;5230846;28;9505;-68
2023/03/07 09:23:38;;;;;;;;;15.00;15.00;;;;;;;;5267261;28;11186;-68
2023/03/07 09:26:09;;;;;;;;;22.50;19.25;;;;;;;;5230745;28;8826;-68
2023/03/07 09:28:41;;;;;;;;;19.60;17.60;;;;;;;;5267031;28;8815;-68
2023/03/07 09:31:13;;;;;;;;;14.50;14.25;;;;;;;;5265504;28;8786;-68
2023/03/07 09:33:44;;;;;;;;;22.20;21.00;;;;;;;;5249362;28;11449;-69
2023/03/07 09:36:16;;;;;;;;;23.75;22.50;;;;;;;;5249175;28;8835;-69
2023/03/07 09:38:47;;;;;;;;;22.60;21.60;;;;;;;;5232263;28;11490;-68
2023/03/07 09:41:30;;;;;;;;;18.50;18.50;;;;;;;;5249383;28;9493;-68
2023/03/07 09:44:16;;;;;;;;;21.60;21.40;;;;;;;;5261610;28;8804;-70
2023/03/07 09:47:25;;;;;;;;;20.60;20.40;;;;;;;;5228667;28;9005;-67
2023/03/07 09:49:57;;;;;;;;;28.60;27.40;;;;;;;;5246283;28;8784;-67
2023/03/07 09:52:32;;;;;;;;;24.80;24.80;;;;;;;;5265593;28;8775;-67
2023/03/07 09:55:18;;;;;;;;;26.40;25.20;;;;;;;;5267044;28;8789;-68
2023/03/07 09:57:50;;;;;;;;;37.20;37.00;;;;;;;;5232541;28;8821;-67
2023/03/07 10:00:21;;;;;;;;;25.00;23.00;;;;;;;;5267193;28;8778;-67
2023/03/07 10:03:02;;;;;;;;;24.25;24.00;;;;;;;;5232538;28;8777;-69
2023/03/07 10:05:38;;;;;;;;;22.20;22.20;;;;;;;;5246801;28;11475;-69
2023/03/07 10:08:12;;;;;;;;;19.40;17.00;;;;;;;;5249452;28;8789;-69
2023/03/07 10:11:05;;;;;;;;;20.40;20.40;;;;;;;;5226301;28;8793;-69
2023/03/07 10:13:35;;;;;;;;;21.20;21.20;;;;;;;;5232340;28;9520;-69
2023/03/07 10:16:18;;;;;;;;;29.50;28.75;;;;;;;;5215558;28;8796;-69
2023/03/07 10:18:52;;;;;;;;;22.20;22.20;;;;;;;;5250385;28;9596;-69
2023/03/07 10:21:25;;;;;;;;;13.00;13.00;;;;;;;;5261193;28;9485;-69
2023/03/07 10:24:19;;;;;;;;;27.20;26.40;;;;;;;;5250621;28;8942;-69
2023/03/07 10:27:11;;;;;;;;;33.40;32.60;;;;;;;;5255862;28;8860;-69
2023/03/07 10:29:42;;;;;;;;;33.20;31.20;;;;;;;;5250079;28;8786;-69
2023/03/07 10:32:19;;;;;;;;;30.00;29.50;;;;;;;;5249900;28;8866;-69
2023/03/07 10:34:59;;;;;;;;;14.80;14.80;;;;;;;;5249574;28;8834;-69
2023/03/07 10:37:44;;;;;;;;;27.40;27.00;;;;;;;;5215128;28;8808;-69
2023/03/07 10:40:24;;;;;;;;;25.20;25.00;;;;;;;;5249446;28;8804;-69
2023/03/07 10:43:25;;;;;;;;;20.40;19.20;;;;;;;;5235570;28;8807;-70
2023/03/07 10:46:09;;;;;;;;;11.80;11.80;;;;;;;;5233481;28;9539;-67
2023/03/07 10:48:43;;;;;;;;;12.40;12.40;;;;;;;;5252762;28;8941;-68
2023/03/07 10:51:17;;;;;;;;;17.60;17.60;;;;;;;;5252075;28;8800;-67
2023/03/07 10:53:49;;;;;;;;;11.80;11.80;;;;;;;;5231254;28;8812;-68
2023/03/07 10:56:20;;;;;;;;;9.80;9.40;;;;;;;;5251253;28;8831;-67
2023/03/07 10:59:01;;;;;;;;;12.00;12.00;;;;;;;;5231566;28;8780;-67
2023/03/07 11:01:32;;;;;;;;;11.40;10.80;;;;;;;;5198564;28;8796;-67
2023/03/07 11:04:05;;;;;;;;;9.40;9.40;;;;;;;;5232099;28;8788;-68
2023/03/07 11:06:43;;;;;;;;;5.40;5.40;;;;;;;;5231030;28;8823;-67
2023/03/07 11:09:14;;;;;;;;;9.40;9.40;;;;;;;;5218179;28;8811;-68
2023/03/07 11:11:46;;;;;;;;;19.40;19.40;;;;;;;;5251789;28;8878;-68
2023/03/07 11:14:17;;;;;;;;;10.00;10.00;;;;;;;;5269380;28;9545;-69
2023/03/07 11:16:51;;;;;;;;;9.00;9.00;;;;;;;;5225924;28;8826;-68
2023/03/07 11:19:29;;;;;;;;;16.40;16.40;;;;;;;;5225992;28;9507;-68
2023/03/07 11:22:02;;;;;;;;;25.20;25.00;;;;;;;;5229725;28;9601;-68
2023/03/07 11:24:37;;;;;;;;;20.00;20.00;;;;;;;;5230864;28;8828;-68
2023/03/07 11:27:18;;;;;;;;;25.20;24.40;;;;;;;;5231270;28;8814;-68
2023/03/07 11:30:08;;;;;;;;;16.20;15.00;;;;;;;;5210511;28;8889;-69
2023/03/07 11:32:42;;;;;;;;;22.20;21.80;;;;;;;;5228077;28;8767;-67
2023/03/07 11:35:45;;;;;;;;;27.80;23.40;;;;;;;;5213288;28;8797;-67
2023/03/07 11:38:28;;;;;;;;;16.80;16.40;;;;;;;;5239958;28;8915;-67
2023/03/07 11:41:18;;;;;;;;;17.60;17.60;;;;;;;;5197706;28;8792;-67
2023/03/07 11:44:10;;;;;;;;;31.20;28.80;;;;;;;;5214014;28;8768;-67
2023/03/07 11:46:41;;;;;;;;;27.00;23.00;;;;;;;;5214198;28;8831;-67
2023/03/07 11:49:57;;;;;;;;;29.20;28.60;;;;;;;;5233382;28;8777;-67
2023/03/07 11:52:47;;;;;;;;;16.60;15.60;;;;;;;;5249038;28;8907;-68
2023/03/07 11:55:18;;;;;;;;;20.80;20.80;;;;;;;;5230680;28;8773;-68
2023/03/07 11:57:49;;;;;;;;;26.80;25.60;;;;;;;;5248216;28;8786;-68
2023/03/07 12:00:24;;;;;;;;;27.80;27.80;;;;;;;;5213641;28;8804;-68
2023/03/07 12:03:14;;;;;;;;;34.20;32.20;;;;;;;;5197281;28;8781;-67
2023/03/07 12:05:54;;;;;;;;;34.80;33.80;;;;;;;;5230655;28;8801;-68
2023/03/07 12:08:26;;;;;;;;;24.00;24.00;;;;;;;;5196926;28;8769;-68
2023/03/07 12:11:06;;;;;;;;;20.40;20.40;;;;;;;;5197019;28;8765;-68
2023/03/07 12:13:40;;;;;;;;;34.20;32.20;;;;;;;;5248318;28;8919;-68
2023/03/07 12:16:26;;;;;;;;;30.80;29.60;;;;;;;;5196900;28;8776;-68
2023/03/07 12:19:08;;;;;;;;;34.40;33.20;;;;;;;;5213490;28;8808;-68
2023/03/07 12:21:55;;;;;;;;;34.60;34.60;;;;;;;;5230656;28;8795;-68
2023/03/07 12:24:38;;;;;;;;;17.60;17.00;;;;;;;;5196593;28;8859;-68
2023/03/07 12:27:09;;;;;;;;;26.80;24.00;;;;;;;;5229733;28;8824;-68
2023/03/07 12:29:41;;;;;;;;;24.00;23.25;;;;;;;;5213736;28;8784;-68
2023/03/07 12:32:14;;;;;;;;;31.20;30.60;;;;;;;;5246958;28;8772;-68
2023/03/07 12:35:06;;;;;;;;;29.00;28.80;;;;;;;;5213047;28;8791;-68
2023/03/07 12:38:03;;;;;;;;;26.40;25.40;;;;;;;;5229749;28;8796;-68
2023/03/07 12:41:03;;;;;;;;;25.60;24.20;;;;;;;;5247416;28;8777;-68
2023/03/07 12:43:38;;;;;;;;;28.40;27.20;;;;;;;;5176299;28;8788;-68
2023/03/07 12:46:20;;;;;;;;;21.60;21.00;;;;;;;;5256963;28;8838;-66
2023/03/07 12:49:09;;;;;;;;;20.00;20.00;;;;;;;;5250231;28;8770;-67
2023/03/07 12:51:44;;;;;;;;;36.00;35.00;;;;;;;;5229399;28;9531;-67
2023/03/07 12:54:22;;;;;;;;;26.00;25.40;;;;;;;;5228862;28;8835;-69
2023/03/07 12:56:55;;;;;;;;;20.80;20.20;;;;;;;;5242998;28;8797;-69
2023/03/07 12:59:28;;;;;;;;;17.40;17.40;;;;;;;;5228005;28;8796;-69
2023/03/07 13:02:22;;;;;;;;;24.00;24.00;;;;;;;;5251893;28;8877;-68
2023/03/07 13:04:53;;;;;;;;;32.40;31.40;;;;;;;;5239042;28;8794;-68
2023/03/07 13:07:25;;;;;;;;;25.00;25.00;;;;;;;;5245314;28;8855;-69
2023/03/07 13:10:02;;;;;;;;;26.60;26.60;;;;;;;;5246717;28;8799;-69
2023/03/07 13:12:34;;;;;;;;;29.80;28.60;;;;;;;;5247089;28;8788;-69
2023/03/07 13:15:26;;;;;;;;;23.40;23.40;;;;;;;;5246533;28;8951;-69
2023/03/07 13:18:26;;;;;;;;;17.40;17.40;;;;;;;;5246785;28;9484;-69
2023/03/07 13:21:07;;;;;;;;;12.40;12.40;;;;;;;;5246815;28;8808;-68
2023/03/07 13:23:38;;;;;;;;;24.80;23.00;;;;;;;;5229345;28;8828;-68
2023/03/07 13:26:10;;;;;;;;;23.80;23.80;;;;;;;;5250282;28;8798;-68
2023/03/07 13:28:41;;;;;;;;;22.60;22.60;;;;;;;;5252870;28;8878;-68
2023/03/07 13:31:15;;;;;;;;;19.60;19.60;;;;;;;;5246315;28;8792;-69
2023/03/07 13:33:49;;;;;;;;;22.20;21.00;;;;;;;;5212284;28;8784;-69
2023/03/07 13:36:31;;;;;;;;;23.60;23.60;;;;;;;;5244105;28;8777;-68
2023/03/07 13:39:02;;;;;;;;;19.20;19.20;;;;;;;;5228145;28;8781;-68
2023/03/07 13:41:42;;;;;;;;;16.40;15.20;;;;;;;;5257279;28;8860;-68
2023/03/07 13:44:33;;;;;;;;;11.80;11.80;;;;;;;;5248208;28;8771;-69
2023/03/07 13:47:23;;;;;;;;;16.80;16.80;;;;;;;;5218868;28;8789;-68
2023/03/07 13:49:54;;;;;;;;;16.40;16.40;;;;;;;;5228434;28;8814;-68
2023/03/07 13:52:34;;;;;;;;;25.25;23.75;;;;;;;;5246040;28;8757;-68
2023/03/07 13:55:14;;;;;;;;;20.20;20.20;;;;;;;;5228010;28;8765;-69
2023/03/07 13:57:46;;;;;;;;;27.20;26.80;;;;;;;;5228276;28;8769;-68
2023/03/07 14:00:24;;;;;;;;;36.80;36.20;;;;;;;;5248772;28;8781;-68
2023/03/07 14:02:55;;;;;;;;;43.60;38.60;;;;;;;;5248878;28;8786;-69
2023/03/07 14:05:28;;;;;;;;;49.20;41.20;;;;;;;;5248861;28;8772;-67
2023/03/07 14:08:01;;;;;;;;;61.40;48.80;;;;;;;;5211813;28;8753;-67
2023/03/07 14:10:33;;;;;;;;;51.00;47.00;;;;;;;;5245833;28;8850;-68
2023/03/07 14:13:04;;;;;;;;;55.80;49.20;;;;;;;;5245673;28;8789;-68
2023/03/07 14:15:54;;;;;;;;;59.00;50.75;;;;;;;;5210833;28;8817;-68
2023/03/07 14:18:26;;;;;;;;;82.40;65.00;;;;;;;;5225002;28;8782;-68
2023/03/07 14:21:09;;;;;;;;;48.50;45.25;;;;;;;;5225526;28;8889;-69
2023/03/07 14:24:01;;;;;;;;;52.40;46.40;;;;;;;;5209681;28;8830;-69
2023/03/07 14:26:33;;;;;;;;;65.00;56.00;;;;;;;;5190973;28;8799;-71
2023/03/07 14:29:25;;;;;;;;;38.60;37.20;;;;;;;;5243711;28;8792;-69
2023/03/07 14:31:57;;;;;;;;;71.20;57.80;;;;;;;;5227556;28;8789;-69
2023/03/07 14:34:32;;;;;;;;;82.80;67.80;;;;;;;;5232552;28;8794;-68
2023/03/07 14:37:07;;;;;;;;;94.60;71.60;;;;;;;;5232871;28;8804;-68
2023/03/07 14:39:38;;;;;;;;;84.80;67.60;;;;;;;;5228014;28;8905;-69
2023/03/07 14:42:29;;;;;;;;;66.50;52.75;;;;;;;;5245520;28;8923;-66
2023/03/07 14:45:09;;;;;;;;;72.40;57.40;;;;;;;;5245241;28;8865;-67
2023/03/07 14:47:42;;;;;;;;;57.20;49.80;;;;;;;;5227805;28;8785;-67
2023/03/07 14:50:15;;;;;;;;;65.40;55.20;;;;;;;;5245621;28;8761;-68
2023/03/07 14:52:47;;;;;;;;;65.60;55.80;;;;;;;;5245260;28;8833;-68
2023/03/07 14:55:19;;;;;;;;;75.80;57.40;;;;;;;;5243763;28;8815;-68
2023/03/07 14:57:52;;;;;;;;;81.20;65.40;;;;;;;;5214771;28;8796;-68
2023/03/07 15:00:25;;;;;;;;;82.00;64.40;;;;;;;;5249312;28;8860;-68
2023/03/07 15:03:09;;;;;;;;;96.80;71.60;;;;;;;;5247791;28;8794;-68
2023/03/07 15:05:48;;;;;;;;;92.20;69.80;;;;;;;;5248670;28;9517;-68
2023/03/07 15:08:24;;;;;;;;;98.80;73.40;;;;;;;;5231604;28;8825;-68
2023/03/07 15:11:01;;;;;;;;;89.60;67.60;;;;;;;;5249033;28;9528;-68
2023/03/07 15:13:36;;;;;;;;;74.60;57.60;;;;;;;;5248832;28;8794;-68
2023/03/07 15:16:42;;;;;;;;;72.20;56.00;;;;;;;;5249020;28;8799;-68
2023/03/07 15:19:13;;;;;;;;;68.20;54.40;;;;;;;;5247717;28;8848;-68